createdAt,value
2018-10-06T00:02:22.491Z,82.62
2018-10-06T00:05:27.453Z,82.30
2018-10-06T00:08:32.431Z,82.90
2018-10-06T00:11:38.226Z,82.33
2018-10-06T00:14:43.213Z,82.59
2018-10-06T00:17:49.831Z,82.22
2018-10-06T00:20:56.337Z,82.73
2018-10-06T00:24:01.511Z,83.37
2018-10-06T00:27:06.765Z,82.54
2018-10-06T00:30:12.772Z,83.34
2018-10-06T00:33:18.568Z,83.56
2018-10-06T00:36:24.387Z,83.39
2018-10-06T00:39:30.574Z,82.88
2018-10-06T00:42:35.568Z,82.71
2018-10-06T00:45:40.794Z,83.70
2018-10-06T00:48:46.437Z,83.22
2018-10-06T00:51:51.515Z,82.45
2018-10-06T00:54:58.019Z,83.47
2018-10-06T00:58:03.877Z,83.38
2018-10-06T01:01:09.076Z,82.12
2018-10-06T01:04:14.669Z,82.12
2018-10-06T01:07:20.530Z,82.32
2018-10-06T01:10:26.941Z,82.97
2018-10-06T01:13:31.980Z,82.99
2018-10-06T01:16:36.998Z,82.48
2018-10-06T01:19:42.241Z,82.68
2018-10-06T01:22:48.604Z,83.37
2018-10-06T01:25:53.565Z,83.09
2018-10-06T01:29:01.278Z,83.91
2018-10-06T01:32:19.833Z,82.83
2018-10-06T01:35:33.171Z,82.42
2018-10-06T01:38:44.728Z,82.23
2018-10-06T01:41:49.774Z,82.57
2018-10-06T01:44:56.489Z,82.50
2018-10-06T01:48:02.342Z,82.71
2018-10-06T01:51:08.300Z,83.17
2018-10-06T01:54:14.632Z,83.04
2018-10-06T01:57:21.166Z,83.40
2018-10-06T02:00:26.917Z,83.67
2018-10-06T02:03:33.061Z,83.43
2018-10-06T02:06:38.804Z,83.34
2018-10-06T02:09:44.602Z,82.86
2018-10-06T02:12:50.357Z,83.22
2018-10-06T02:15:55.322Z,82.38
2018-10-06T02:19:00.371Z,83.33
2018-10-06T02:22:05.519Z,83.21
2018-10-06T02:25:14.988Z,82.63
2018-10-06T02:28:21.786Z,84.10
2018-10-06T02:31:28.886Z,83.01
2018-10-06T02:34:34.685Z,83.63
2018-10-06T02:37:40.903Z,82.95
2018-10-06T02:40:45.897Z,82.88
2018-10-06T02:43:51.761Z,83.32
2018-10-06T02:47:00.379Z,83.46
2018-10-06T02:50:07.647Z,83.72
2018-10-06T02:53:12.984Z,83.92
2018-10-06T02:56:19.982Z,83.21
2018-10-06T02:59:25.951Z,83.62
2018-10-06T03:02:34.882Z,84.35
2018-10-06T03:05:40.727Z,84.04
2018-10-06T03:08:47.217Z,83.69
2018-10-06T03:11:52.211Z,84.70
2018-10-06T03:14:59.943Z,83.45
2018-10-06T03:18:06.581Z,84.47
2018-10-06T03:21:13.641Z,83.97
2018-10-06T03:24:19.898Z,84.39
2018-10-06T03:27:25.520Z,84.45
2018-10-06T03:30:31.779Z,84.34
2018-10-06T03:33:38.429Z,83.48
2018-10-06T03:36:45.460Z,84.00
2018-10-06T03:39:53.984Z,83.31
2018-10-06T03:42:59.311Z,83.41
2018-10-06T03:46:07.078Z,83.41
2018-10-06T03:49:15.466Z,83.36
2018-10-06T03:52:29.163Z,84.31
2018-10-06T03:55:36.419Z,83.67
2018-10-06T03:58:44.957Z,84.27
2018-10-06T04:01:51.955Z,83.66
2018-10-06T04:05:00.424Z,83.80
2018-10-06T04:08:09.230Z,84.13
2018-10-06T04:11:16.421Z,84.06
2018-10-06T04:14:23.335Z,83.63
2018-10-06T04:17:32.104Z,83.97
2018-10-06T04:20:37.101Z,83.76
2018-10-06T04:23:45.306Z,83.58
2018-10-06T04:26:53.339Z,84.28
2018-10-06T04:29:58.329Z,83.32
2018-10-06T04:33:06.122Z,84.20
2018-10-06T04:36:11.230Z,83.52
2018-10-06T04:39:17.161Z,83.52
2018-10-06T04:42:22.902Z,82.85
2018-10-06T04:45:27.902Z,83.58
2018-10-06T04:48:33.538Z,83.95
2018-10-06T04:51:38.603Z,83.97
2018-10-06T04:54:44.547Z,84.33
2018-10-06T04:57:49.526Z,83.84
2018-10-06T05:00:55.334Z,84.02
2018-10-06T05:04:02.183Z,84.51
2018-10-06T05:07:07.921Z,83.83
2018-10-06T05:10:14.160Z,82.90
2018-10-06T05:15:04.440Z,84.59
2018-10-06T05:18:10.217Z,84.98
2018-10-06T05:21:16.178Z,84.87
2018-10-06T05:24:21.833Z,84.94
2018-10-06T05:27:27.501Z,84.96
2018-10-06T05:30:33.355Z,84.03
2018-10-06T05:33:39.198Z,84.70
2018-10-06T05:36:54.164Z,84.58
2018-10-06T05:39:59.139Z,84.30
2018-10-06T05:43:05.104Z,84.07
2018-10-06T05:46:10.909Z,84.39
2018-10-06T05:49:16.086Z,83.47
2018-10-06T05:52:21.099Z,84.24
2018-10-06T05:55:26.233Z,83.94
2018-10-06T05:58:32.513Z,84.29
2018-10-06T06:01:38.490Z,83.62
2018-10-06T06:04:43.646Z,83.63
2018-10-06T06:07:48.626Z,84.17
2018-10-06T06:10:53.666Z,83.32
2018-10-06T06:14:05.695Z,83.24
2018-10-06T06:17:15.445Z,83.51
2018-10-06T06:20:23.237Z,84.29
2018-10-06T06:23:31.049Z,84.06
2018-10-06T06:26:41.483Z,84.51
2018-10-06T06:29:53.824Z,84.70
2018-10-06T06:33:07.715Z,84.32
2018-10-06T06:36:16.787Z,83.37
2018-10-06T06:39:23.206Z,82.88
2018-10-06T06:42:31.213Z,82.92
2018-10-06T06:45:41.135Z,82.86
2018-10-06T06:48:53.439Z,83.81
2018-10-06T06:52:02.362Z,84.20
2018-10-06T06:55:10.781Z,85.04
2018-10-06T06:58:20.218Z,84.48
2018-10-06T07:01:32.057Z,84.84
2018-10-06T07:04:40.081Z,85.15
2018-10-06T07:07:53.213Z,85.06
2018-10-06T07:11:00.118Z,85.04
2018-10-06T07:14:06.340Z,83.75
2018-10-06T07:17:12.579Z,83.56
2018-10-06T07:20:21.808Z,83.27
2018-10-06T07:23:30.580Z,84.40
2018-10-06T07:26:36.447Z,84.09
2018-10-06T07:29:41.465Z,84.84
2018-10-06T07:32:46.509Z,84.69
2018-10-06T07:35:52.405Z,84.73
2018-10-06T07:38:58.263Z,85.93
2018-10-06T07:42:04.126Z,85.17
2018-10-06T07:45:10.252Z,85.54
2018-10-06T07:48:16.014Z,85.37
2018-10-06T07:51:21.886Z,86.25
2018-10-06T07:54:26.925Z,85.40
2018-10-06T07:57:32.767Z,85.15
2018-10-06T08:00:38.381Z,84.49
2018-10-06T08:03:45.692Z,83.31
2018-10-06T08:06:52.721Z,81.80
2018-10-06T08:09:59.924Z,80.73
2018-10-06T08:13:07.115Z,81.28
2018-10-06T08:16:14.852Z,81.52
2018-10-06T08:19:23.314Z,80.00
2018-10-06T08:22:29.791Z,79.20
2018-10-06T08:25:35.718Z,79.34
2018-10-06T08:28:41.643Z,78.51
2018-10-06T08:31:48.294Z,78.04
2018-10-06T08:34:57.281Z,76.05
2018-10-06T08:38:07.885Z,75.84
2018-10-06T08:41:22.904Z,73.09
2018-10-06T08:44:35.155Z,67.87
2018-10-06T08:47:42.269Z,66.55
2018-10-06T08:54:28.943Z,65.94
2018-10-06T08:57:33.907Z,62.11
2018-10-06T09:00:45.789Z,62.00
2018-10-06T09:03:52.713Z,59.97
2018-10-06T09:06:59.698Z,60.88
2018-10-06T09:10:11.202Z,61.28
2018-10-06T09:13:22.053Z,58.52
2018-10-06T09:16:31.180Z,56.56
2018-10-06T09:19:40.096Z,56.46
2018-10-06T09:22:47.536Z,56.37
2018-10-06T09:25:55.049Z,53.50
2018-10-06T09:29:03.364Z,54.10
2018-10-06T09:32:13.200Z,54.66
2018-10-06T09:35:23.190Z,53.33
2018-10-06T09:38:33.323Z,52.29
2018-10-06T09:41:43.032Z,51.42
2018-10-06T09:44:52.644Z,50.63
2018-10-06T09:51:23.271Z,50.55
2018-10-06T09:54:31.126Z,49.48
2018-10-06T09:57:42.498Z,50.10
2018-10-06T10:00:58.172Z,48.63
2018-10-06T10:04:10.246Z,49.89
2018-10-06T10:07:15.249Z,50.33
2018-10-06T10:10:21.996Z,46.75
2018-10-06T10:13:26.979Z,47.07
2018-10-06T10:16:32.212Z,45.90
2018-10-06T10:19:37.222Z,45.70
2018-10-06T10:22:42.342Z,45.84
2018-10-06T10:25:47.304Z,47.21
2018-10-06T10:28:53.558Z,46.66
2018-10-06T10:32:02.871Z,46.39
2018-10-06T10:35:13.358Z,48.32
2018-10-06T10:38:22.885Z,45.81
2018-10-06T10:41:32.964Z,45.77
2018-10-06T10:44:46.516Z,46.39
2018-10-06T10:47:56.601Z,47.67
2018-10-06T10:51:05.209Z,47.67
2018-10-06T10:54:13.342Z,48.69
2018-10-06T10:57:23.519Z,48.65
2018-10-06T11:00:31.451Z,47.25
2018-10-06T11:03:43.434Z,47.10
2018-10-06T11:06:54.505Z,46.98
2018-10-06T11:10:06.864Z,48.06
2018-10-06T11:13:19.022Z,48.00
2018-10-06T11:16:30.043Z,48.47
2018-10-06T11:19:35.058Z,48.99
2018-10-06T11:22:41.370Z,47.70
2018-10-06T11:25:46.799Z,48.06
2018-10-06T11:28:51.851Z,46.80
2018-10-06T11:31:58.246Z,45.80
2018-10-06T11:35:03.250Z,47.83
2018-10-06T11:38:09.075Z,46.59
2018-10-06T11:41:15.114Z,45.88
2018-10-06T11:44:20.844Z,46.52
2018-10-06T11:47:26.617Z,45.64
2018-10-06T11:50:36.496Z,45.67
2018-10-06T11:53:45.340Z,45.81
2018-10-06T11:56:55.017Z,45.69
2018-10-06T12:00:04.401Z,45.92
2018-10-06T12:03:12.854Z,46.81
2018-10-06T12:06:23.375Z,46.67
2018-10-06T12:09:32.602Z,45.69
2018-10-06T12:15:10.891Z,45.90
2018-10-06T12:18:22.223Z,47.19
2018-10-06T12:21:33.762Z,46.14
2018-10-06T12:24:42.927Z,46.00
2018-10-06T12:27:47.925Z,45.05
2018-10-06T12:30:53.186Z,45.95
2018-10-06T12:34:00.067Z,45.35
2018-10-06T12:37:05.380Z,44.36
2018-10-06T12:40:11.372Z,44.45
2018-10-06T12:43:16.454Z,44.36
2018-10-06T12:46:21.721Z,42.62
2018-10-06T12:49:28.054Z,44.64
2018-10-06T12:52:34.165Z,43.42
2018-10-06T12:55:40.884Z,42.55
2018-10-06T12:58:47.998Z,41.80
2018-10-06T13:01:54.145Z,42.02
2018-10-06T13:05:00.021Z,41.48
2018-10-06T13:08:06.498Z,43.57
2018-10-06T13:11:12.762Z,42.54
2018-10-06T13:14:18.714Z,42.73
2018-10-06T13:17:24.629Z,45.13
2018-10-06T13:20:29.699Z,43.26
2018-10-06T13:23:34.891Z,44.56
2018-10-06T13:26:41.560Z,43.80
2018-10-06T13:29:47.565Z,44.62
2018-10-06T13:32:53.748Z,44.35
2018-10-06T13:36:00.189Z,43.58
2018-10-06T13:39:06.941Z,44.00
2018-10-06T13:42:13.274Z,43.31
2018-10-06T13:45:19.929Z,46.04
2018-10-06T13:48:25.883Z,45.02
2018-10-06T13:51:31.739Z,44.89
2018-10-06T13:54:37.601Z,44.25
2018-10-06T13:57:43.677Z,45.81
2018-10-06T14:00:48.810Z,44.27
2018-10-06T14:03:54.799Z,46.61
2018-10-06T14:07:01.454Z,46.78
2018-10-06T14:10:06.478Z,45.49
2018-10-06T14:13:13.455Z,44.79
2018-10-06T14:16:20.591Z,47.39
2018-10-06T14:19:26.613Z,47.01
2018-10-06T14:22:32.870Z,46.94
2018-10-06T14:25:39.142Z,47.04
2018-10-06T14:28:44.927Z,48.32
2018-10-06T14:31:50.846Z,46.55
2018-10-06T14:34:56.709Z,46.98
2018-10-06T14:38:01.743Z,45.84
2018-10-06T14:41:06.800Z,46.16
2018-10-06T14:44:12.573Z,47.03
2018-10-06T14:47:19.402Z,45.61
2018-10-06T14:50:24.822Z,47.76
2018-10-06T14:53:30.764Z,48.19
2018-10-06T14:56:37.300Z,47.13
2018-10-06T14:59:43.274Z,46.89
2018-10-06T15:02:49.137Z,47.44
2018-10-06T15:05:55.772Z,47.35
2018-10-06T15:09:02.639Z,47.89
2018-10-06T15:12:09.547Z,48.32
2018-10-06T15:15:15.487Z,48.78
2018-10-06T15:18:21.486Z,48.11
2018-10-06T15:21:28.227Z,48.00
2018-10-06T15:24:33.598Z,48.66
2018-10-06T15:27:40.945Z,47.55
2018-10-06T15:30:47.346Z,48.78
2018-10-06T15:33:53.923Z,48.64
2018-10-06T15:37:00.772Z,49.30
2018-10-06T15:40:08.597Z,49.07
2018-10-06T15:43:15.572Z,49.17
2018-10-06T15:46:23.066Z,49.97
2018-10-06T15:49:29.868Z,49.49
2018-10-06T15:52:36.066Z,50.95
2018-10-06T15:55:41.955Z,51.04
2018-10-06T15:58:49.583Z,51.12
2018-10-06T16:01:56.578Z,50.63
2018-10-06T16:05:02.462Z,51.53
2018-10-06T16:08:08.777Z,51.87
2018-10-06T16:11:14.602Z,53.29
2018-10-06T16:14:20.887Z,53.61
2018-10-06T16:17:28.296Z,53.95
2018-10-06T16:20:34.246Z,54.76
2018-10-06T16:23:40.276Z,56.34
2018-10-06T16:26:47.483Z,57.19
2018-10-06T16:29:53.930Z,57.91
2018-10-06T16:32:59.915Z,59.81
2018-10-06T16:36:05.851Z,59.46
2018-10-06T16:39:13.361Z,61.17
2018-10-06T16:42:20.334Z,62.40
2018-10-06T16:45:27.318Z,62.99
2018-10-06T16:48:36.136Z,63.40
2018-10-06T16:51:44.109Z,63.23
2018-10-06T16:54:51.090Z,63.47
2018-10-06T16:57:57.365Z,63.94
2018-10-06T17:01:03.304Z,65.17
2018-10-06T17:04:09.579Z,64.66
2018-10-06T17:07:15.451Z,65.05
2018-10-06T17:10:21.591Z,65.30
2018-10-06T17:13:27.757Z,67.29
2018-10-06T17:16:33.893Z,67.86
2018-10-06T17:19:40.764Z,67.39
2018-10-06T17:22:46.609Z,67.82
2018-10-06T17:25:53.471Z,68.16
2018-10-06T17:29:00.820Z,68.73
2018-10-06T17:32:07.471Z,69.73
2018-10-06T17:35:14.228Z,70.04
2018-10-06T17:38:20.511Z,70.79
2018-10-06T17:41:27.440Z,70.00
2018-10-06T17:44:34.557Z,69.94
2018-10-06T17:47:42.592Z,70.28
2018-10-06T17:50:49.118Z,71.74
2018-10-06T17:53:56.431Z,71.08
2018-10-06T17:57:01.656Z,71.92
2018-10-06T18:00:07.858Z,72.23
2018-10-06T18:03:13.015Z,71.53
2018-10-06T18:06:18.930Z,71.40
2018-10-06T18:09:24.021Z,71.80
2018-10-06T18:12:31.081Z,72.43
2018-10-06T18:15:37.106Z,73.13
2018-10-06T18:18:42.187Z,73.05
2018-10-06T18:21:48.023Z,73.15
2018-10-06T18:24:53.928Z,72.33
2018-10-06T18:28:03.013Z,73.52
2018-10-06T18:31:10.980Z,73.62
2018-10-06T18:34:31.786Z,73.33
2018-10-06T18:37:46.342Z,73.16
2018-10-06T18:40:55.071Z,74.41
2018-10-06T18:44:17.684Z,74.50
2018-10-06T18:50:58.716Z,75.07
2018-10-06T18:54:05.589Z,74.89
2018-10-06T18:57:11.653Z,74.63
2018-10-06T19:00:17.704Z,76.05
2018-10-06T19:03:24.898Z,75.80
2018-10-06T19:06:31.983Z,74.70
2018-10-06T19:09:37.935Z,75.90
2018-10-06T19:12:44.882Z,75.34
2018-10-06T19:15:51.643Z,75.64
2018-10-06T19:18:56.906Z,75.91
2018-10-06T19:22:05.019Z,76.07
2018-10-06T19:25:23.714Z,75.88
2018-10-06T19:28:28.896Z,76.74
2018-10-06T19:31:36.458Z,76.59
2018-10-06T19:34:41.548Z,76.30
2018-10-06T19:37:50.102Z,77.00
2018-10-06T19:40:58.670Z,76.40
2018-10-06T19:44:04.719Z,77.74
2018-10-06T19:47:10.831Z,77.81
2018-10-06T19:50:16.832Z,78.45
2018-10-06T19:53:22.974Z,77.65
2018-10-06T19:56:28.727Z,78.09
2018-10-06T19:59:34.438Z,77.95
2018-10-06T20:02:39.492Z,77.97
2018-10-06T20:05:44.476Z,78.90
2018-10-06T20:08:50.981Z,78.82
2018-10-06T20:11:55.985Z,78.29
2018-10-06T20:15:00.953Z,78.18
2018-10-06T20:18:06.950Z,78.47
2018-10-06T20:21:11.965Z,78.76
2018-10-06T20:24:18.049Z,79.61
2018-10-06T20:27:24.781Z,79.71
2018-10-06T20:30:29.953Z,79.50
2018-10-06T20:33:35.721Z,78.90
2018-10-06T20:36:40.743Z,79.80
2018-10-06T20:39:46.650Z,78.78
2018-10-06T20:42:54.003Z,79.34
2018-10-06T20:46:00.192Z,78.71
2018-10-06T20:49:06.349Z,79.52
2018-10-06T20:52:11.410Z,79.94
2018-10-06T20:55:17.176Z,79.19
2018-10-06T20:58:23.344Z,79.46
2018-10-06T21:01:29.876Z,80.21
2018-10-06T21:04:35.514Z,80.55
2018-10-06T21:07:40.761Z,79.65
2018-10-06T21:15:06.433Z,80.44
2018-10-06T21:18:14.342Z,81.07
2018-10-06T21:21:19.690Z,80.21
2018-10-06T21:24:24.808Z,80.88
2018-10-06T21:27:31.642Z,80.69
2018-10-06T21:30:36.892Z,81.61
2018-10-06T21:33:42.051Z,80.47
2018-10-06T21:36:47.129Z,80.43
2018-10-06T21:39:53.290Z,81.02
2018-10-06T21:42:58.508Z,80.10
2018-10-06T21:46:03.702Z,81.27
2018-10-06T21:49:08.842Z,81.02
2018-10-06T21:52:13.866Z,81.20
2018-10-06T21:55:20.621Z,80.75
2018-10-06T21:58:26.292Z,82.36
2018-10-06T22:01:35.601Z,82.16
2018-10-06T22:04:41.632Z,81.10
2018-10-06T22:07:46.802Z,82.46
2018-10-06T22:10:52.977Z,82.25
2018-10-06T22:13:59.119Z,82.05
2018-10-06T22:17:04.187Z,82.44
2018-10-06T22:20:09.494Z,82.34
2018-10-06T22:23:15.106Z,81.36
2018-10-06T22:26:21.686Z,81.67
2018-10-06T22:29:28.031Z,80.74
2018-10-06T22:32:33.061Z,81.18
2018-10-06T22:35:38.086Z,80.31
2018-10-06T22:38:43.843Z,80.60
2018-10-06T22:41:50.258Z,81.79
2018-10-06T22:44:55.967Z,81.40
2018-10-06T22:48:01.152Z,81.35
2018-10-06T22:51:06.414Z,81.09
2018-10-06T22:54:11.539Z,81.48
2018-10-06T22:57:16.606Z,82.07
2018-10-06T23:00:23.290Z,81.77
2018-10-06T23:03:28.487Z,81.64
2018-10-06T23:06:33.516Z,82.41
2018-10-06T23:09:39.645Z,81.68
2018-10-06T23:12:44.644Z,82.28
2018-10-06T23:15:50.797Z,82.17
2018-10-06T23:18:56.562Z,81.97
2018-10-06T23:22:01.594Z,82.86
2018-10-06T23:25:06.606Z,82.78
2018-10-06T23:28:12.519Z,81.92
2018-10-06T23:31:17.529Z,81.88
2018-10-06T23:34:29.343Z,82.65
2018-10-06T23:37:34.364Z,81.93
2018-10-06T23:40:40.346Z,82.29
2018-10-06T23:43:45.356Z,82.57
2018-10-06T23:46:50.445Z,83.62
2018-10-06T23:49:55.613Z,83.42
2018-10-06T23:53:00.606Z,82.39
2018-10-06T23:56:06.560Z,83.48
2018-10-06T23:59:13.425Z,82.22
